createdAt,value
2018-12-26T00:00:03.450Z,69.30
2018-12-26T00:02:31.869Z,70.00
2018-12-26T00:05:00.292Z,70.20
2018-12-26T00:07:28.724Z,70.30
2018-12-26T00:09:57.157Z,70.00
2018-12-26T00:12:25.607Z,70.10
2018-12-26T00:14:54.024Z,69.60
2018-12-26T00:17:22.521Z,68.60
2018-12-26T00:19:51.063Z,69.10
2018-12-26T00:22:19.541Z,69.60
2018-12-26T00:24:47.964Z,69.20
2018-12-26T00:27:16.403Z,69.60
2018-12-26T00:29:44.844Z,69.70
2018-12-26T00:32:13.284Z,69.40
2018-12-26T00:34:41.693Z,69.60
2018-12-26T00:37:10.109Z,70.00
2018-12-26T00:39:38.890Z,69.50
2018-12-26T00:42:07.337Z,70.00
2018-12-26T00:44:35.842Z,70.60
2018-12-26T00:47:04.290Z,70.20
2018-12-26T00:49:33.028Z,70.50
2018-12-26T00:52:01.481Z,70.20
2018-12-26T00:54:29.974Z,69.90
2018-12-26T00:56:58.520Z,69.80
2018-12-26T00:59:26.931Z,70.00
2018-12-26T01:01:55.359Z,69.70
2018-12-26T01:04:23.818Z,69.80
2018-12-26T01:06:52.241Z,69.00
2018-12-26T01:09:21.000Z,69.00
2018-12-26T01:11:49.408Z,69.10
2018-12-26T01:14:17.858Z,69.10
2018-12-26T01:16:46.264Z,68.50
2018-12-26T01:19:14.684Z,68.10
2018-12-26T01:21:43.105Z,68.30
2018-12-26T01:24:11.542Z,69.10
2018-12-26T01:26:39.969Z,69.30
2018-12-26T01:29:08.629Z,69.10
2018-12-26T01:31:37.090Z,69.30
2018-12-26T01:34:05.492Z,69.20
2018-12-26T01:36:33.947Z,69.60
2018-12-26T01:39:02.356Z,69.40
2018-12-26T01:41:30.809Z,68.70
2018-12-26T01:43:59.204Z,68.80
2018-12-26T01:46:27.681Z,69.40
2018-12-26T01:48:56.076Z,69.30
2018-12-26T01:51:24.862Z,69.60
2018-12-26T01:53:53.265Z,69.10
2018-12-26T01:56:27.873Z,69.50
2018-12-26T01:58:51.865Z,69.50
2018-12-26T02:01:20.338Z,68.80
2018-12-26T02:03:48.790Z,69.20
2018-12-26T02:06:17.181Z,69.80
2018-12-26T02:08:45.622Z,69.30
2018-12-26T02:11:14.033Z,69.20
2018-12-26T02:13:42.459Z,69.50
2018-12-26T02:16:10.945Z,69.10
2018-12-26T02:18:39.380Z,70.30
2018-12-26T02:21:07.810Z,70.60
2018-12-26T02:23:36.234Z,70.30
2018-12-26T02:26:04.669Z,70.20
2018-12-26T02:28:33.093Z,70.70
2018-12-26T02:31:01.501Z,71.40
2018-12-26T02:33:29.960Z,72.20
2018-12-26T02:35:58.371Z,71.90
2018-12-26T02:38:26.815Z,71.70
2018-12-26T02:40:55.218Z,72.70
2018-12-26T02:43:23.674Z,73.40
2018-12-26T02:45:52.085Z,74.00
2018-12-26T02:48:20.512Z,75.10
2018-12-26T02:50:49.197Z,75.10
2018-12-26T02:53:17.641Z,74.70
2018-12-26T02:55:46.056Z,74.10
2018-12-26T02:58:14.488Z,73.80
2018-12-26T03:00:42.918Z,73.40
2018-12-26T03:03:11.681Z,72.80
2018-12-26T03:05:40.098Z,72.80
2018-12-26T03:08:08.522Z,72.20
2018-12-26T03:10:36.962Z,71.60
2018-12-26T03:13:05.377Z,71.30
2018-12-26T03:15:33.796Z,71.50
2018-12-26T03:18:02.221Z,71.70
2018-12-26T03:20:30.639Z,70.90
2018-12-26T03:22:59.052Z,71.40
2018-12-26T03:25:27.471Z,71.90
2018-12-26T03:27:55.924Z,71.10
2018-12-26T03:30:24.423Z,70.80
2018-12-26T03:32:52.867Z,71.00
2018-12-26T03:35:21.436Z,70.00
2018-12-26T03:37:49.836Z,70.50
2018-12-26T03:40:18.259Z,71.20
2018-12-26T03:42:46.673Z,70.90
2018-12-26T03:45:15.494Z,71.20
2018-12-26T03:47:44.550Z,71.40
2018-12-26T03:50:13.255Z,70.70
2018-12-26T03:52:41.937Z,70.30
2018-12-26T03:55:10.398Z,70.20
2018-12-26T03:57:38.870Z,70.10
2018-12-26T04:00:09.336Z,70.90
2018-12-26T04:02:37.825Z,71.80
2018-12-26T04:05:06.251Z,72.00
2018-12-26T04:07:34.897Z,71.50
2018-12-26T04:10:03.416Z,71.30
2018-12-26T04:12:32.051Z,71.90
2018-12-26T04:15:00.543Z,71.90
2018-12-26T04:17:29.029Z,71.90
2018-12-26T04:19:57.918Z,72.10
2018-12-26T04:22:27.093Z,72.10
2018-12-26T04:24:55.784Z,71.90
2018-12-26T04:27:24.225Z,72.40
2018-12-26T04:29:52.655Z,71.50
2018-12-26T04:32:21.063Z,71.20
2018-12-26T04:34:49.490Z,70.50
2018-12-26T04:37:17.968Z,70.20
2018-12-26T04:39:46.414Z,69.90
2018-12-26T04:42:14.864Z,69.80
2018-12-26T04:44:43.318Z,68.10
2018-12-26T04:47:11.820Z,68.70
2018-12-26T04:49:40.258Z,69.80
2018-12-26T04:52:08.719Z,70.00
2018-12-26T04:54:37.256Z,69.80
2018-12-26T04:57:05.701Z,69.80
2018-12-26T04:59:34.110Z,68.90
2018-12-26T05:02:02.529Z,68.00
2018-12-26T05:04:30.965Z,67.50
2018-12-26T05:06:59.400Z,66.90
2018-12-26T05:09:27.795Z,66.70
2018-12-26T05:11:56.231Z,66.20
2018-12-26T05:14:24.652Z,66.00
2018-12-26T05:16:53.068Z,66.50
2018-12-26T05:19:21.468Z,66.70
2018-12-26T05:21:49.897Z,66.50
2018-12-26T05:24:18.315Z,66.80
2018-12-26T05:26:46.767Z,66.70
2018-12-26T05:29:15.193Z,67.00
2018-12-26T05:31:43.626Z,67.30
2018-12-26T05:34:12.041Z,67.20
2018-12-26T05:36:40.465Z,67.20
2018-12-26T05:39:08.868Z,67.30
2018-12-26T05:41:37.621Z,67.00
2018-12-26T05:44:06.148Z,67.00
2018-12-26T05:46:34.597Z,67.00
2018-12-26T05:49:22.617Z,67.70
2018-12-26T05:51:51.074Z,67.90
2018-12-26T05:54:19.549Z,68.00
2018-12-26T05:56:47.997Z,68.10
2018-12-26T05:59:16.450Z,66.60
2018-12-26T06:01:44.962Z,66.10
2018-12-26T06:04:13.653Z,66.30
2018-12-26T06:06:42.765Z,66.50
2018-12-26T06:09:11.178Z,67.10
2018-12-26T06:11:40.587Z,68.00
2018-12-26T06:14:09.041Z,67.80
2018-12-26T06:16:37.511Z,67.90
2018-12-26T06:19:06.034Z,67.90
2018-12-26T06:21:34.498Z,69.00
2018-12-26T06:24:02.912Z,68.20
2018-12-26T06:26:31.344Z,67.80
2018-12-26T06:28:59.777Z,67.90
2018-12-26T06:31:28.215Z,67.10
2018-12-26T06:33:56.602Z,66.30
2018-12-26T06:36:24.997Z,66.00
2018-12-26T06:38:53.423Z,65.50
2018-12-26T06:41:21.840Z,65.60
2018-12-26T06:43:50.549Z,65.70
2018-12-26T06:46:18.949Z,66.20
2018-12-26T06:48:47.390Z,65.70
2018-12-26T06:51:15.868Z,66.00
2018-12-26T06:53:44.366Z,66.80
2018-12-26T06:56:13.137Z,67.30
2018-12-26T06:58:41.627Z,66.80
2018-12-26T07:01:10.032Z,66.60
2018-12-26T07:03:38.899Z,67.00
2018-12-26T07:06:07.379Z,67.00
2018-12-26T07:08:35.808Z,66.60
2018-12-26T07:11:04.221Z,67.50
2018-12-26T07:13:32.674Z,66.80
2018-12-26T07:16:01.086Z,66.40
2018-12-26T07:18:29.538Z,67.20
2018-12-26T07:20:57.940Z,66.90
2018-12-26T07:23:26.388Z,66.70
2018-12-26T07:25:54.803Z,66.50
2018-12-26T07:28:23.595Z,66.10
2018-12-26T07:30:52.052Z,65.90
2018-12-26T07:33:20.802Z,66.20
2018-12-26T07:35:49.313Z,66.20
2018-12-26T07:38:17.816Z,66.50
2018-12-26T07:40:46.259Z,65.90
2018-12-26T07:43:14.685Z,65.70
2018-12-26T07:45:43.142Z,66.50
2018-12-26T07:48:12.069Z,66.90
2018-12-26T07:50:40.507Z,66.50
2018-12-26T07:53:09.019Z,67.20
2018-12-26T07:55:37.469Z,67.10
2018-12-26T07:58:05.906Z,67.30
2018-12-26T08:00:34.422Z,67.00
2018-12-26T08:03:02.866Z,67.30
2018-12-26T08:05:31.302Z,67.20
2018-12-26T08:08:00.030Z,66.50
2018-12-26T08:10:30.046Z,66.50
2018-12-26T08:12:58.532Z,66.40
2018-12-26T08:15:26.954Z,65.60
2018-12-26T08:17:55.687Z,65.20
2018-12-26T08:20:24.128Z,64.80
2018-12-26T08:22:52.567Z,64.40
2018-12-26T08:25:20.978Z,63.20
2018-12-26T08:27:49.422Z,63.10
2018-12-26T08:30:17.836Z,62.50
2018-12-26T08:32:46.278Z,62.90
2018-12-26T08:35:14.906Z,63.10
2018-12-26T08:37:44.722Z,62.50
2018-12-26T08:40:13.166Z,62.50
2018-12-26T08:42:41.613Z,62.60
2018-12-26T08:45:10.113Z,62.60
2018-12-26T08:47:38.535Z,62.60
2018-12-26T08:50:08.625Z,61.60
2018-12-26T08:52:37.067Z,61.60
2018-12-26T08:55:05.525Z,61.40
2018-12-26T08:57:33.944Z,61.40
2018-12-26T09:00:02.458Z,61.60
2018-12-26T09:02:30.972Z,61.40
2018-12-26T09:04:59.462Z,61.50
2018-12-26T09:07:27.981Z,61.60
2018-12-26T09:09:56.553Z,60.10
2018-12-26T09:12:25.319Z,59.90
2018-12-26T09:14:53.730Z,60.40
2018-12-26T09:17:22.173Z,60.50
2018-12-26T09:19:50.609Z,60.80
2018-12-26T09:22:19.052Z,60.30
2018-12-26T09:24:47.485Z,61.00
2018-12-26T09:27:16.028Z,59.50
2018-12-26T09:29:44.448Z,59.20
2018-12-26T09:32:13.162Z,59.40
2018-12-26T09:34:41.633Z,60.30
2018-12-26T09:37:10.045Z,60.50
2018-12-26T09:39:38.502Z,60.50
2018-12-26T09:42:06.968Z,60.90
2018-12-26T09:44:35.433Z,60.50
2018-12-26T09:47:03.919Z,60.20
2018-12-26T09:49:32.333Z,60.20
2018-12-26T09:52:00.840Z,59.30
2018-12-26T09:54:29.289Z,58.90
2018-12-26T09:56:57.735Z,59.20
2018-12-26T09:59:26.274Z,58.90
2018-12-26T10:01:54.717Z,58.90
2018-12-26T10:04:23.146Z,58.20
2018-12-26T10:06:51.570Z,58.50
2018-12-26T10:09:20.154Z,58.40
2018-12-26T10:11:48.586Z,58.10
2018-12-26T10:14:16.990Z,57.90
2018-12-26T10:16:45.853Z,58.10
2018-12-26T10:19:14.326Z,57.70
2018-12-26T10:21:42.799Z,57.80
2018-12-26T10:24:11.234Z,57.90
2018-12-26T10:26:39.684Z,57.90
2018-12-26T10:29:08.172Z,56.80
2018-12-26T10:31:36.660Z,57.00
2018-12-26T10:34:05.086Z,56.80
2018-12-26T10:36:33.596Z,56.80
2018-12-26T10:39:02.666Z,56.40
2018-12-26T10:41:32.049Z,56.10
2018-12-26T10:44:00.448Z,56.10
2018-12-26T10:46:29.165Z,56.20
2018-12-26T10:48:57.582Z,56.40
2018-12-26T10:51:26.004Z,56.50
2018-12-26T10:53:54.415Z,56.00
2018-12-26T10:56:22.865Z,56.10
2018-12-26T10:58:51.349Z,56.80
2018-12-26T11:01:19.952Z,56.80
2018-12-26T11:03:48.727Z,56.50
2018-12-26T11:06:17.690Z,56.20
2018-12-26T11:08:46.183Z,56.30
2018-12-26T11:11:16.626Z,55.70
2018-12-26T11:13:45.136Z,55.80
2018-12-26T11:16:14.619Z,55.60
2018-12-26T11:18:43.487Z,55.60
2018-12-26T11:21:13.022Z,55.20
2018-12-26T11:23:44.516Z,55.00
2018-12-26T11:26:13.131Z,54.90
2018-12-26T11:28:41.993Z,56.00
2018-12-26T11:31:10.537Z,56.90
2018-12-26T11:33:39.211Z,56.00
2018-12-26T11:36:07.740Z,55.20
2018-12-26T11:38:37.298Z,56.20
2018-12-26T11:41:05.826Z,55.70
2018-12-26T11:43:35.119Z,55.80
2018-12-26T11:46:03.616Z,55.40
2018-12-26T11:48:35.283Z,55.40
2018-12-26T11:51:04.423Z,56.30
2018-12-26T11:53:33.044Z,56.30
2018-12-26T11:56:01.456Z,56.20
2018-12-26T11:58:30.168Z,55.80
2018-12-26T12:00:58.590Z,55.20
2018-12-26T12:03:27.002Z,55.10
2018-12-26T12:05:55.435Z,55.10
2018-12-26T12:08:23.916Z,55.20
2018-12-26T12:10:52.385Z,54.40
2018-12-26T12:13:20.820Z,54.30
2018-12-26T12:15:49.213Z,54.90
2018-12-26T12:18:23.681Z,54.80
2018-12-26T12:20:52.095Z,54.90
2018-12-26T12:23:20.768Z,54.90
2018-12-26T12:25:49.173Z,54.10
2018-12-26T12:28:17.584Z,54.70
2018-12-26T12:30:46.010Z,54.60
2018-12-26T12:33:14.424Z,54.60
2018-12-26T12:35:42.925Z,55.00
2018-12-26T12:38:11.394Z,54.70
2018-12-26T12:40:39.900Z,54.10
2018-12-26T12:43:08.423Z,53.70
2018-12-26T12:45:36.916Z,53.70
2018-12-26T12:48:05.359Z,54.40
2018-12-26T12:50:33.858Z,53.70
2018-12-26T12:53:02.252Z,54.30
2018-12-26T12:55:30.677Z,53.80
2018-12-26T12:57:59.132Z,54.10
2018-12-26T13:00:27.609Z,54.50
2018-12-26T13:03:00.354Z,54.10
2018-12-26T13:05:26.198Z,55.50
2018-12-26T13:07:54.630Z,55.80
2018-12-26T13:10:23.027Z,55.30
2018-12-26T13:12:51.485Z,55.00
2018-12-26T13:15:19.977Z,54.30
2018-12-26T13:17:48.402Z,53.80
2018-12-26T13:20:16.808Z,54.00
2018-12-26T13:22:45.273Z,53.80
2018-12-26T13:25:13.729Z,53.40
2018-12-26T13:27:42.125Z,53.60
2018-12-26T13:30:10.942Z,53.90
2018-12-26T13:32:39.737Z,53.30
2018-12-26T13:35:08.320Z,53.70
2018-12-26T13:37:43.209Z,53.60
2018-12-26T13:40:11.618Z,53.90
2018-12-26T13:42:40.145Z,54.40
2018-12-26T13:45:08.653Z,55.00
2018-12-26T13:47:37.058Z,55.70
2018-12-26T13:50:06.712Z,57.20
2018-12-26T13:52:35.110Z,56.60
2018-12-26T13:55:04.698Z,56.90
2018-12-26T13:57:33.100Z,56.70
2018-12-26T14:00:02.568Z,56.60
2018-12-26T14:02:31.284Z,55.90
2018-12-26T14:04:59.704Z,55.70
2018-12-26T14:07:28.121Z,55.80
2018-12-26T14:09:56.528Z,56.20
2018-12-26T14:12:24.944Z,56.40
2018-12-26T14:14:53.456Z,56.70
2018-12-26T14:17:22.235Z,56.80
2018-12-26T14:19:50.654Z,57.20
2018-12-26T14:22:19.053Z,57.30
2018-12-26T14:24:47.477Z,58.30
2018-12-26T14:27:15.908Z,58.50
2018-12-26T14:29:44.328Z,58.10
2018-12-26T14:32:12.833Z,57.20
2018-12-26T14:34:43.191Z,57.00
2018-12-26T14:37:11.388Z,56.90
2018-12-26T14:39:39.784Z,57.00
2018-12-26T14:42:08.198Z,57.30
2018-12-26T14:44:36.620Z,57.30
2018-12-26T14:47:05.068Z,57.40
2018-12-26T14:49:33.520Z,57.50
2018-12-26T14:52:01.962Z,57.50
2018-12-26T14:54:30.358Z,58.20
2018-12-26T14:56:58.774Z,58.90
2018-12-26T14:59:27.169Z,59.20
2018-12-26T15:01:55.573Z,59.40
2018-12-26T15:04:24.010Z,59.60
2018-12-26T15:06:52.445Z,59.70
2018-12-26T15:09:21.204Z,59.90
2018-12-26T15:11:49.651Z,60.00
2018-12-26T15:14:18.053Z,60.00
2018-12-26T15:16:46.472Z,60.10
2018-12-26T15:19:16.342Z,60.80
2018-12-26T15:21:44.784Z,60.90
2018-12-26T15:24:13.184Z,61.50
2018-12-26T15:26:41.629Z,62.00
2018-12-26T15:29:10.027Z,62.70
2018-12-26T15:31:38.429Z,63.10
2018-12-26T15:34:06.827Z,63.20
2018-12-26T15:36:35.264Z,63.50
2018-12-26T15:39:05.295Z,63.30
2018-12-26T15:41:35.355Z,63.10
2018-12-26T15:44:04.001Z,64.20
2018-12-26T15:46:32.397Z,63.30
2018-12-26T15:49:00.858Z,63.80
2018-12-26T15:51:30.050Z,63.60
2018-12-26T15:53:58.765Z,63.60
2018-12-26T15:56:27.204Z,63.40
2018-12-26T15:58:55.621Z,63.70
2018-12-26T16:01:24.012Z,64.30
2018-12-26T16:03:52.465Z,65.00
2018-12-26T16:06:20.851Z,64.90
2018-12-26T16:08:49.285Z,64.90
2018-12-26T16:11:17.679Z,65.20
2018-12-26T16:13:46.093Z,65.70
2018-12-26T16:16:14.508Z,66.50
2018-12-26T16:18:42.916Z,66.50
2018-12-26T16:21:11.369Z,65.70
2018-12-26T16:23:39.775Z,65.80
2018-12-26T16:26:08.512Z,65.90
2018-12-26T16:28:36.946Z,65.50
2018-12-26T16:31:05.342Z,65.60
2018-12-26T16:33:34.297Z,65.10
2018-12-26T16:36:02.725Z,64.80
2018-12-26T16:38:31.435Z,64.80
2018-12-26T16:40:59.867Z,65.90
2018-12-26T16:43:28.350Z,65.50
2018-12-26T16:45:56.752Z,65.70
2018-12-26T16:48:25.156Z,65.90
2018-12-26T16:50:53.555Z,65.90
2018-12-26T16:53:21.994Z,66.00
2018-12-26T16:55:50.403Z,65.60
2018-12-26T16:58:19.003Z,65.50
2018-12-26T17:00:54.822Z,65.50
2018-12-26T17:03:17.534Z,65.90
2018-12-26T17:05:45.951Z,65.60
2018-12-26T17:08:14.364Z,65.60
2018-12-26T17:10:43.049Z,65.70
2018-12-26T17:13:11.493Z,65.90
2018-12-26T17:15:39.895Z,65.40
2018-12-26T17:18:08.316Z,65.70
2018-12-26T17:20:36.746Z,66.10
2018-12-26T17:23:05.152Z,65.70
2018-12-26T17:25:33.585Z,65.10
2018-12-26T17:28:02.321Z,64.50
2018-12-26T17:30:30.808Z,64.30
2018-12-26T17:33:00.807Z,64.30
2018-12-26T17:35:29.520Z,64.80
2018-12-26T17:37:57.948Z,65.00
2018-12-26T17:40:26.341Z,65.60
2018-12-26T17:42:54.777Z,65.30
2018-12-26T17:45:23.441Z,65.70
2018-12-26T17:47:51.921Z,66.30
2018-12-26T17:50:40.171Z,65.90
2018-12-26T17:53:11.978Z,65.90
2018-12-26T17:56:00.248Z,65.90
2018-12-26T17:58:34.859Z,66.10
2018-12-26T18:01:30.280Z,66.00
2018-12-26T18:03:58.733Z,66.30
2018-12-26T18:06:27.216Z,66.50
2018-12-26T18:08:55.633Z,66.20
2018-12-26T18:11:24.075Z,66.40
2018-12-26T18:13:52.486Z,66.40
2018-12-26T18:16:20.887Z,66.80
2018-12-26T18:18:49.322Z,66.40
2018-12-26T18:21:17.732Z,66.40
2018-12-26T18:23:46.189Z,66.30
2018-12-26T18:26:14.623Z,66.60
2018-12-26T18:28:43.045Z,68.00
2018-12-26T18:31:11.554Z,68.90
2018-12-26T18:33:39.984Z,68.90
2018-12-26T18:36:08.390Z,68.80
2018-12-26T18:38:36.858Z,68.80
2018-12-26T18:41:05.264Z,69.80
2018-12-26T18:43:33.721Z,70.60
2018-12-26T18:46:02.306Z,70.80
2018-12-26T18:48:30.805Z,72.10
2018-12-26T18:50:59.222Z,72.10
2018-12-26T18:53:27.713Z,72.50
2018-12-26T18:55:56.409Z,72.70
2018-12-26T18:58:24.867Z,72.40
2018-12-26T19:00:53.336Z,72.50
2018-12-26T19:03:21.857Z,72.70
2018-12-26T19:05:50.261Z,71.40
2018-12-26T19:08:18.743Z,70.80
2018-12-26T19:10:47.222Z,70.20
2018-12-26T19:13:15.668Z,70.30
2018-12-26T19:15:44.088Z,69.40
2018-12-26T19:18:12.497Z,68.50
2018-12-26T19:20:40.941Z,68.70
2018-12-26T19:23:09.353Z,69.00
2018-12-26T19:25:37.825Z,69.20
2018-12-26T19:28:06.225Z,69.90
2018-12-26T19:30:34.974Z,70.00
2018-12-26T19:33:03.372Z,69.80
2018-12-26T19:35:31.831Z,71.30
2018-12-26T19:38:00.241Z,72.10
2018-12-26T19:40:28.711Z,72.70
2018-12-26T19:42:57.206Z,73.40
2018-12-26T19:45:25.662Z,73.20
2018-12-26T19:47:54.330Z,72.80
2018-12-26T19:50:22.788Z,72.40
2018-12-26T19:52:51.211Z,71.00
2018-12-26T19:55:19.650Z,68.90
2018-12-26T19:57:48.049Z,68.90
2018-12-26T20:00:16.508Z,69.60
2018-12-26T20:02:45.009Z,69.80
2018-12-26T20:05:13.454Z,69.90
2018-12-26T20:07:41.878Z,69.70
2018-12-26T20:10:11.085Z,70.80
2018-12-26T20:12:39.510Z,70.10
2018-12-26T20:15:08.033Z,69.40
2018-12-26T20:17:36.438Z,68.30
2018-12-26T20:20:07.028Z,68.50
2018-12-26T20:22:35.440Z,68.10
2018-12-26T20:25:03.990Z,68.70
2018-12-26T20:27:32.425Z,69.00
2018-12-26T20:30:00.927Z,69.00
2018-12-26T20:32:29.453Z,69.00
2018-12-26T20:34:57.954Z,69.40
2018-12-26T20:37:26.418Z,68.40
2018-12-26T20:39:55.130Z,67.10
2018-12-26T20:42:23.562Z,66.60
2018-12-26T20:44:52.022Z,65.90
2018-12-26T20:47:20.431Z,65.40
2018-12-26T20:49:48.892Z,64.70
2018-12-26T20:52:17.297Z,64.80
2018-12-26T20:54:45.734Z,65.60
2018-12-26T20:57:14.223Z,65.70
2018-12-26T20:59:42.882Z,66.90
2018-12-26T21:02:11.418Z,67.20
2018-12-26T21:04:39.815Z,67.60
2018-12-26T21:07:08.306Z,67.80
2018-12-26T21:09:36.705Z,68.50
2018-12-26T21:12:05.121Z,68.30
2018-12-26T21:14:33.564Z,67.70
2018-12-26T21:17:01.963Z,67.50
2018-12-26T21:19:30.750Z,68.50
2018-12-26T21:21:59.149Z,69.00
2018-12-26T21:24:27.568Z,70.20
2018-12-26T21:26:56.083Z,71.30
2018-12-26T21:29:24.492Z,72.30
2018-12-26T21:31:52.993Z,72.40
2018-12-26T21:34:21.416Z,71.50
2018-12-26T21:36:49.801Z,71.30
2018-12-26T21:39:18.232Z,70.70
2018-12-26T21:41:46.644Z,70.70
2018-12-26T21:44:15.056Z,70.30
2018-12-26T21:46:43.762Z,69.60
2018-12-26T21:49:12.195Z,69.70
2018-12-26T21:51:40.596Z,69.60
2018-12-26T21:54:09.022Z,69.80
2018-12-26T21:56:37.466Z,69.80
2018-12-26T21:59:05.864Z,69.70
2018-12-26T22:01:34.639Z,69.70
2018-12-26T22:04:03.346Z,69.60
2018-12-26T22:06:31.744Z,69.80
2018-12-26T22:09:00.189Z,69.60
2018-12-26T22:11:28.588Z,68.80
2018-12-26T22:13:56.996Z,68.40
2018-12-26T22:16:25.738Z,69.50
2018-12-26T22:18:54.153Z,69.80
2018-12-26T22:21:22.588Z,70.70
2018-12-26T22:23:50.989Z,71.00
2018-12-26T22:26:19.410Z,71.60
2018-12-26T22:28:47.858Z,70.90
2018-12-26T22:31:16.301Z,71.80
2018-12-26T22:33:44.706Z,72.10
2018-12-26T22:36:13.150Z,72.10
2018-12-26T22:38:41.589Z,72.30
2018-12-26T22:41:09.990Z,72.70
2018-12-26T22:43:38.729Z,72.50
2018-12-26T22:46:07.152Z,73.20
2018-12-26T22:48:35.556Z,74.70
2018-12-26T22:51:04.031Z,75.50
2018-12-26T22:53:32.464Z,76.30
2018-12-26T22:56:01.253Z,77.40
2018-12-26T22:58:29.653Z,77.10
2018-12-26T23:00:58.113Z,76.70
2018-12-26T23:03:26.541Z,76.10
2018-12-26T23:05:54.960Z,75.00
2018-12-26T23:08:23.408Z,74.10
2018-12-26T23:10:51.841Z,73.60
2018-12-26T23:13:20.279Z,72.20
2018-12-26T23:15:48.719Z,73.40
2018-12-26T23:18:17.118Z,73.80
2018-12-26T23:20:45.550Z,74.90
2018-12-26T23:23:13.998Z,74.60
2018-12-26T23:25:42.750Z,75.40
2018-12-26T23:28:11.167Z,74.70
2018-12-26T23:30:39.573Z,74.10
2018-12-26T23:33:07.976Z,74.30
2018-12-26T23:35:36.406Z,74.40
2018-12-26T23:38:04.809Z,73.20
2018-12-26T23:40:33.225Z,72.60
2018-12-26T23:43:01.625Z,72.30
2018-12-26T23:45:30.044Z,73.90
2018-12-26T23:47:58.775Z,74.30
2018-12-26T23:50:27.177Z,74.70
2018-12-26T23:52:55.611Z,74.70
2018-12-26T23:55:43.406Z,75.70
2018-12-26T23:58:11.894Z,75.30
